sensor_id;sensor_type;location;lat;lon;timestamp;P1;P2;P0
77896;PMS5003;67092;64.282;21.056;2023-03-21T00:01:16;0;0;
77896;PMS5003;67092;64.282;21.056;2023-03-21T00:03:41;0;0;
77896;PMS5003;67092;64.282;21.056;2023-03-21T00:06:09;0;0;
77896;PMS5003;67092;64.282;21.056;2023-03-21T00:08:33;0;0;
77896;PMS5003;67092;64.282;21.056;2023-03-21T00:10:59;0;0;
77896;PMS5003;67092;64.282;21.056;2023-03-21T00:13:24;0;0;
77896;PMS5003;67092;64.282;21.056;2023-03-21T00:15:49;0;0;
77896;PMS5003;67092;64.282;21.056;2023-03-21T00:18:16;0;0;
77896;PMS5003;67092;64.282;21.056;2023-03-21T00:20:41;0;0;
77896;PMS5003;67092;64.282;21.056;2023-03-21T00:23:06;0;0;
77896;PMS5003;67092;64.282;21.056;2023-03-21T00:25:32;0;0;
77896;PMS5003;67092;64.282;21.056;2023-03-21T00:27:58;0;0;
77896;PMS5003;67092;64.282;21.056;2023-03-21T00:30:23;0;0;
77896;PMS5003;67092;64.282;21.056;2023-03-21T00:32:49;0;0;
77896;PMS5003;67092;64.282;21.056;2023-03-21T00:35:14;1;0;
77896;PMS5003;67092;64.282;21.056;2023-03-21T00:37:40;0;0;
77896;PMS5003;67092;64.282;21.056;2023-03-21T00:40:06;0;0;
77896;PMS5003;67092;64.282;21.056;2023-03-21T00:42:31;0;0;
77896;PMS5003;67092;64.282;21.056;2023-03-21T00:44:57;0;0;
77896;PMS5003;67092;64.282;21.056;2023-03-21T00:47:22;0;0;
77896;PMS5003;67092;64.282;21.056;2023-03-21T00:49:48;0;0;
77896;PMS5003;67092;64.282;21.056;2023-03-21T00:52:14;0;0;
77896;PMS5003;67092;64.282;21.056;2023-03-21T00:54:39;0;0;
77896;PMS5003;67092;64.282;21.056;2023-03-21T00:57:05;0;0;
77896;PMS5003;67092;64.282;21.056;2023-03-21T00:59:30;0;0;
77896;PMS5003;67092;64.282;21.056;2023-03-21T01:01:56;0;0;
77896;PMS5003;67092;64.282;21.056;2023-03-21T01:04:22;0;0;
77896;PMS5003;67092;64.282;21.056;2023-03-21T01:06:47;0;0;
77896;PMS5003;67092;64.282;21.056;2023-03-21T01:09:13;0;0;
77896;PMS5003;67092;64.282;21.056;2023-03-21T01:11:38;1;0;
77896;PMS5003;67092;64.282;21.056;2023-03-21T01:14:04;0;0;
77896;PMS5003;67092;64.282;21.056;2023-03-21T01:16:30;0;0;
77896;PMS5003;67092;64.282;21.056;2023-03-21T01:18:55;0;0;
77896;PMS5003;67092;64.282;21.056;2023-03-21T01:21:21;0;0;
77896;PMS5003;67092;64.282;21.056;2023-03-21T01:23:47;0;0;
77896;PMS5003;67092;64.282;21.056;2023-03-21T01:26:12;0;0;
77896;PMS5003;67092;64.282;21.056;2023-03-21T01:28:38;0;0;
77896;PMS5003;67092;64.282;21.056;2023-03-21T01:31:04;0;0;
77896;PMS5003;67092;64.282;21.056;2023-03-21T01:33:29;0;0;
77896;PMS5003;67092;64.282;21.056;2023-03-21T01:35:55;0;0;
77896;PMS5003;67092;64.282;21.056;2023-03-21T01:38:20;0;0;
77896;PMS5003;67092;64.282;21.056;2023-03-21T01:40:46;0;0;
77896;PMS5003;67092;64.282;21.056;2023-03-21T01:43:18;0;0;
77896;PMS5003;67092;64.282;21.056;2023-03-21T01:48:03;0;0;
77896;PMS5003;67092;64.282;21.056;2023-03-21T01:50:28;0;0;
77896;PMS5003;67092;64.282;21.056;2023-03-21T01:52:54;0;0;
77896;PMS5003;67092;64.282;21.056;2023-03-21T01:55:19;0;0;
77896;PMS5003;67092;64.282;21.056;2023-03-21T01:57:46;0;0;
77896;PMS5003;67092;64.282;21.056;2023-03-21T02:00:11;0;0;
77896;PMS5003;67092;64.282;21.056;2023-03-21T02:02:37;0;0;
77896;PMS5003;67092;64.282;21.056;2023-03-21T02:05:02;0;0;
77896;PMS5003;67092;64.282;21.056;2023-03-21T02:07:29;1;0;
77896;PMS5003;67092;64.282;21.056;2023-03-21T02:09:53;0;0;
77896;PMS5003;67092;64.282;21.056;2023-03-21T02:12:19;0;0;
77896;PMS5003;67092;64.282;21.056;2023-03-21T02:14:45;0;0;
77896;PMS5003;67092;64.282;21.056;2023-03-21T02:17:13;0;0;
77896;PMS5003;67092;64.282;21.056;2023-03-21T02:19:42;0;0;
77896;PMS5003;67092;64.282;21.056;2023-03-21T02:22:07;0;0;
77896;PMS5003;67092;64.282;21.056;2023-03-21T02:24:33;0;0;
77896;PMS5003;67092;64.282;21.056;2023-03-21T02:26:55;0;0;
77896;PMS5003;67092;64.282;21.056;2023-03-21T02:29:24;0;0;
77896;PMS5003;67092;64.282;21.056;2023-03-21T02:31:45;0;0;
77896;PMS5003;67092;64.282;21.056;2023-03-21T02:34:21;0;0;
77896;PMS5003;67092;64.282;21.056;2023-03-21T02:39:03;0;0;
77896;PMS5003;67092;64.282;21.056;2023-03-21T02:41:28;0;0;
77896;PMS5003;67092;64.282;21.056;2023-03-21T02:43:53;0;0;
77896;PMS5003;67092;64.282;21.056;2023-03-21T02:46:18;0;0;
77896;PMS5003;67092;64.282;21.056;2023-03-21T02:48:44;0;0;
77896;PMS5003;67092;64.282;21.056;2023-03-21T02:51:09;0;0;
77896;PMS5003;67092;64.282;21.056;2023-03-21T02:53:36;0;0;
77896;PMS5003;67092;64.282;21.056;2023-03-21T02:56:00;0;0;
77896;PMS5003;67092;64.282;21.056;2023-03-21T02:58:26;0;0;
77896;PMS5003;67092;64.282;21.056;2023-03-21T03:00:51;0;0;
77896;PMS5003;67092;64.282;21.056;2023-03-21T03:03:17;0;0;
77896;PMS5003;67092;64.282;21.056;2023-03-21T03:05:43;0;0;
77896;PMS5003;67092;64.282;21.056;2023-03-21T03:08:11;0;0;
77896;PMS5003;67092;64.282;21.056;2023-03-21T03:10:38;0;0;
77896;PMS5003;67092;64.282;21.056;2023-03-21T03:13:02;0;0;
77896;PMS5003;67092;64.282;21.056;2023-03-21T03:15:28;0;0;
77896;PMS5003;67092;64.282;21.056;2023-03-21T03:17:51;0;0;
77896;PMS5003;67092;64.282;21.056;2023-03-21T03:20:19;0;0;
77896;PMS5003;67092;64.282;21.056;2023-03-21T03:22:44;0;0;
77896;PMS5003;67092;64.282;21.056;2023-03-21T03:25:08;0;0;
77896;PMS5003;67092;64.282;21.056;2023-03-21T03:27:34;0;0;
77896;PMS5003;67092;64.282;21.056;2023-03-21T03:29:59;0;0;
77896;PMS5003;67092;64.282;21.056;2023-03-21T03:32:25;0;0;
77896;PMS5003;67092;64.282;21.056;2023-03-21T03:34:50;0;0;
77896;PMS5003;67092;64.282;21.056;2023-03-21T03:37:16;0;0;
77896;PMS5003;67092;64.282;21.056;2023-03-21T03:39:42;0;0;
77896;PMS5003;67092;64.282;21.056;2023-03-21T03:42:07;0;0;
77896;PMS5003;67092;64.282;21.056;2023-03-21T03:44:32;0;0;
77896;PMS5003;67092;64.282;21.056;2023-03-21T03:46:59;0;0;
77896;PMS5003;67092;64.282;21.056;2023-03-21T03:49:24;0;0;
77896;PMS5003;67092;64.282;21.056;2023-03-21T03:51:50;0;0;
77896;PMS5003;67092;64.282;21.056;2023-03-21T03:54:15;0;0;
77896;PMS5003;67092;64.282;21.056;2023-03-21T03:56:40;0;0;
77896;PMS5003;67092;64.282;21.056;2023-03-21T03:59:06;0;0;
77896;PMS5003;67092;64.282;21.056;2023-03-21T04:01:31;0;0;
77896;PMS5003;67092;64.282;21.056;2023-03-21T04:03:56;0;0;
77896;PMS5003;67092;64.282;21.056;2023-03-21T04:06:22;0;0;
77896;PMS5003;67092;64.282;21.056;2023-03-21T04:08:48;0;0;
77896;PMS5003;67092;64.282;21.056;2023-03-21T04:11:14;0;0;
77896;PMS5003;67092;64.282;21.056;2023-03-21T04:13:39;0;0;
77896;PMS5003;67092;64.282;21.056;2023-03-21T04:16:05;0;0;
77896;PMS5003;67092;64.282;21.056;2023-03-21T04:18:30;0;0;
77896;PMS5003;67092;64.282;21.056;2023-03-21T04:20:56;0;0;
77896;PMS5003;67092;64.282;21.056;2023-03-21T04:23:21;0;0;
77896;PMS5003;67092;64.282;21.056;2023-03-21T04:25:47;0;0;
77896;PMS5003;67092;64.282;21.056;2023-03-21T04:28:13;0;0;
77896;PMS5003;67092;64.282;21.056;2023-03-21T04:30:38;0;0;
77896;PMS5003;67092;64.282;21.056;2023-03-21T04:33:04;0;0;
77896;PMS5003;67092;64.282;21.056;2023-03-21T04:35:29;0;0;
77896;PMS5003;67092;64.282;21.056;2023-03-21T04:37:55;0;0;
77896;PMS5003;67092;64.282;21.056;2023-03-21T04:40:21;0;0;
77896;PMS5003;67092;64.282;21.056;2023-03-21T04:42:47;0;0;
77896;PMS5003;67092;64.282;21.056;2023-03-21T04:45:12;0;0;
77896;PMS5003;67092;64.282;21.056;2023-03-21T04:47:37;0;0;
77896;PMS5003;67092;64.282;21.056;2023-03-21T04:50:03;0;0;
77896;PMS5003;67092;64.282;21.056;2023-03-21T04:52:29;0;0;
77896;PMS5003;67092;64.282;21.056;2023-03-21T04:54:54;0;0;
77896;PMS5003;67092;64.282;21.056;2023-03-21T04:57:20;0;0;
77896;PMS5003;67092;64.282;21.056;2023-03-21T04:59:46;0;0;
77896;PMS5003;67092;64.282;21.056;2023-03-21T05:02:11;1;0;
77896;PMS5003;67092;64.282;21.056;2023-03-21T05:04:37;0;0;
77896;PMS5003;67092;64.282;21.056;2023-03-21T05:07:02;0;0;
77896;PMS5003;67092;64.282;21.056;2023-03-21T05:09:28;0;0;
77896;PMS5003;67092;64.282;21.056;2023-03-21T05:11:54;0;0;
77896;PMS5003;67092;64.282;21.056;2023-03-21T05:16:45;1;0;
77896;PMS5003;67092;64.282;21.056;2023-03-21T05:19:10;1;0;
77896;PMS5003;67092;64.282;21.056;2023-03-21T05:21:36;0;0;
77896;PMS5003;67092;64.282;21.056;2023-03-21T05:24:02;0;0;
77896;PMS5003;67092;64.282;21.056;2023-03-21T05:26:37;0;0;
77896;PMS5003;67092;64.282;21.056;2023-03-21T05:28:53;0;0;
77896;PMS5003;67092;64.282;21.056;2023-03-21T05:31:19;0;0;
77896;PMS5003;67092;64.282;21.056;2023-03-21T05:33:44;0;0;
77896;PMS5003;67092;64.282;21.056;2023-03-21T05:36:10;0;0;
77896;PMS5003;67092;64.282;21.056;2023-03-21T05:38:35;1;1;
77896;PMS5003;67092;64.282;21.056;2023-03-21T05:41:01;0;0;
77896;PMS5003;67092;64.282;21.056;2023-03-21T05:43:27;0;0;
77896;PMS5003;67092;64.282;21.056;2023-03-21T05:45:52;0;0;
77896;PMS5003;67092;64.282;21.056;2023-03-21T05:48:18;0;0;
77896;PMS5003;67092;64.282;21.056;2023-03-21T05:50:44;0;0;
77896;PMS5003;67092;64.282;21.056;2023-03-21T05:53:09;0;0;
77896;PMS5003;67092;64.282;21.056;2023-03-21T05:55:35;0;0;
77896;PMS5003;67092;64.282;21.056;2023-03-21T05:58:00;1;0;
77896;PMS5003;67092;64.282;21.056;2023-03-21T06:00:26;0;0;
77896;PMS5003;67092;64.282;21.056;2023-03-21T06:02:51;0;0;
77896;PMS5003;67092;64.282;21.056;2023-03-21T06:05:17;0;0;
77896;PMS5003;67092;64.282;21.056;2023-03-21T06:07:43;0;0;
77896;PMS5003;67092;64.282;21.056;2023-03-21T06:10:09;0;0;
77896;PMS5003;67092;64.282;21.056;2023-03-21T06:12:34;0;0;
77896;PMS5003;67092;64.282;21.056;2023-03-21T06:15:00;0;0;
77896;PMS5003;67092;64.282;21.056;2023-03-21T06:17:25;0;0;
77896;PMS5003;67092;64.282;21.056;2023-03-21T06:19:51;1;1;
77896;PMS5003;67092;64.282;21.056;2023-03-21T06:22:16;0;0;
77896;PMS5003;67092;64.282;21.056;2023-03-21T06:24:42;1;0;
77896;PMS5003;67092;64.282;21.056;2023-03-21T06:27:08;0;0;
77896;PMS5003;67092;64.282;21.056;2023-03-21T06:29:33;0;0;
77896;PMS5003;67092;64.282;21.056;2023-03-21T06:31:59;0;0;
77896;PMS5003;67092;64.282;21.056;2023-03-21T06:34:24;0;0;
77896;PMS5003;67092;64.282;21.056;2023-03-21T06:36:50;0;0;
77896;PMS5003;67092;64.282;21.056;2023-03-21T06:39:16;0;0;
77896;PMS5003;67092;64.282;21.056;2023-03-21T06:41:41;0;0;
77896;PMS5003;67092;64.282;21.056;2023-03-21T06:44:07;0;0;
77896;PMS5003;67092;64.282;21.056;2023-03-21T06:46:33;1;0;
77896;PMS5003;67092;64.282;21.056;2023-03-21T06:48:58;0;0;
77896;PMS5003;67092;64.282;21.056;2023-03-21T06:51:24;0;0;
77896;PMS5003;67092;64.282;21.056;2023-03-21T06:53:50;0;0;
77896;PMS5003;67092;64.282;21.056;2023-03-21T06:56:15;0;0;
77896;PMS5003;67092;64.282;21.056;2023-03-21T06:58:41;0;0;
77896;PMS5003;67092;64.282;21.056;2023-03-21T07:01:07;0;0;
77896;PMS5003;67092;64.282;21.056;2023-03-21T07:03:32;0;0;
77896;PMS5003;67092;64.282;21.056;2023-03-21T07:05:58;0;0;
77896;PMS5003;67092;64.282;21.056;2023-03-21T07:08:23;1;0;
77896;PMS5003;67092;64.282;21.056;2023-03-21T07:10:49;1;0;
77896;PMS5003;67092;64.282;21.056;2023-03-21T07:13:15;0;0;
77896;PMS5003;67092;64.282;21.056;2023-03-21T07:15:40;1;0;
77896;PMS5003;67092;64.282;21.056;2023-03-21T07:18:06;0;0;
77896;PMS5003;67092;64.282;21.056;2023-03-21T07:20:31;0;0;
77896;PMS5003;67092;64.282;21.056;2023-03-21T07:22:57;0;0;
77896;PMS5003;67092;64.282;21.056;2023-03-21T07:25:23;0;0;
77896;PMS5003;67092;64.282;21.056;2023-03-21T07:27:48;0;0;
77896;PMS5003;67092;64.282;21.056;2023-03-21T07:30:14;1;0;
77896;PMS5003;67092;64.282;21.056;2023-03-21T07:32:40;1;1;
77896;PMS5003;67092;64.282;21.056;2023-03-21T07:35:06;1;0;
77896;PMS5003;67092;64.282;21.056;2023-03-21T07:37:31;0;0;
77896;PMS5003;67092;64.282;21.056;2023-03-21T07:39:56;0;0;
77896;PMS5003;67092;64.282;21.056;2023-03-21T07:42:22;0;0;
77896;PMS5003;67092;64.282;21.056;2023-03-21T07:44:48;1;0;
77896;PMS5003;67092;64.282;21.056;2023-03-21T07:47:13;0;0;
77896;PMS5003;67092;64.282;21.056;2023-03-21T07:49:39;0;0;
77896;PMS5003;67092;64.282;21.056;2023-03-21T07:52:04;1;0;
77896;PMS5003;67092;64.282;21.056;2023-03-21T07:54:30;1;0;
77896;PMS5003;67092;64.282;21.056;2023-03-21T07:56:56;0;0;
77896;PMS5003;67092;64.282;21.056;2023-03-21T07:59:21;1;0;
77896;PMS5003;67092;64.282;21.056;2023-03-21T08:01:47;2;1;
77896;PMS5003;67092;64.282;21.056;2023-03-21T08:04:13;0;0;
77896;PMS5003;67092;64.282;21.056;2023-03-21T08:06:38;0;0;
77896;PMS5003;67092;64.282;21.056;2023-03-21T08:09:04;0;0;
77896;PMS5003;67092;64.282;21.056;2023-03-21T08:11:30;0;0;
77896;PMS5003;67092;64.282;21.056;2023-03-21T08:13:55;0;0;
77896;PMS5003;67092;64.282;21.056;2023-03-21T08:16:21;0;0;
77896;PMS5003;67092;64.282;21.056;2023-03-21T08:18:46;1;0;
77896;PMS5003;67092;64.282;21.056;2023-03-21T08:21:12;2;0;
77896;PMS5003;67092;64.282;21.056;2023-03-21T08:23:38;1;1;
77896;PMS5003;67092;64.282;21.056;2023-03-21T08:26:03;1;0;
77896;PMS5003;67092;64.282;21.056;2023-03-21T08:28:29;1;1;
77896;PMS5003;67092;64.282;21.056;2023-03-21T08:30:55;2;2;
77896;PMS5003;67092;64.282;21.056;2023-03-21T08:33:20;0;0;
77896;PMS5003;67092;64.282;21.056;2023-03-21T08:35:46;1;1;
77896;PMS5003;67092;64.282;21.056;2023-03-21T08:38:11;2;2;
77896;PMS5003;67092;64.282;21.056;2023-03-21T08:40:37;1;1;
77896;PMS5003;67092;64.282;21.056;2023-03-21T08:43:03;1;1;
77896;PMS5003;67092;64.282;21.056;2023-03-21T08:45:28;1;1;
77896;PMS5003;67092;64.282;21.056;2023-03-21T08:47:54;1;1;
77896;PMS5003;67092;64.282;21.056;2023-03-21T08:50:20;2;1;
77896;PMS5003;67092;64.282;21.056;2023-03-21T08:52:45;2;1;
77896;PMS5003;67092;64.282;21.056;2023-03-21T08:55:12;2;2;
77896;PMS5003;67092;64.282;21.056;2023-03-21T08:57:36;1;1;
77896;PMS5003;67092;64.282;21.056;2023-03-21T09:00:03;2;1;
77896;PMS5003;67092;64.282;21.056;2023-03-21T09:02:28;4;1;
77896;PMS5003;67092;64.282;21.056;2023-03-21T09:04:53;2;1;
77896;PMS5003;67092;64.282;21.056;2023-03-21T09:07:19;1;1;
77896;PMS5003;67092;64.282;21.056;2023-03-21T09:09:45;2;2;
77896;PMS5003;67092;64.282;21.056;2023-03-21T09:12:10;1;1;
77896;PMS5003;67092;64.282;21.056;2023-03-21T09:14:36;1;0;
77896;PMS5003;67092;64.282;21.056;2023-03-21T09:17:02;0;0;
77896;PMS5003;67092;64.282;21.056;2023-03-21T09:19:27;0;0;
77896;PMS5003;67092;64.282;21.056;2023-03-21T09:21:53;2;2;
77896;PMS5003;67092;64.282;21.056;2023-03-21T09:24:18;1;1;
77896;PMS5003;67092;64.282;21.056;2023-03-21T09:26:44;2;1;
77896;PMS5003;67092;64.282;21.056;2023-03-21T09:29:10;2;1;
77896;PMS5003;67092;64.282;21.056;2023-03-21T09:31:35;0;0;
77896;PMS5003;67092;64.282;21.056;2023-03-21T09:34:01;1;0;
77896;PMS5003;67092;64.282;21.056;2023-03-21T09:36:27;1;0;
77896;PMS5003;67092;64.282;21.056;2023-03-21T09:38:53;1;1;
77896;PMS5003;67092;64.282;21.056;2023-03-21T09:41:26;1;0;
77896;PMS5003;67092;64.282;21.056;2023-03-21T09:43:48;0;0;
77896;PMS5003;67092;64.282;21.056;2023-03-21T09:46:11;0;0;
77896;PMS5003;67092;64.282;21.056;2023-03-21T09:48:37;1;1;
77896;PMS5003;67092;64.282;21.056;2023-03-21T09:51:00;1;0;
77896;PMS5003;67092;64.282;21.056;2023-03-21T09:53:26;1;1;
77896;PMS5003;67092;64.282;21.056;2023-03-21T09:55:52;0;0;
77896;PMS5003;67092;64.282;21.056;2023-03-21T09:58:20;1;1;
77896;PMS5003;67092;64.282;21.056;2023-03-21T10:00:44;1;0;
77896;PMS5003;67092;64.282;21.056;2023-03-21T10:03:11;1;1;
77896;PMS5003;67092;64.282;21.056;2023-03-21T10:05:35;1;1;
77896;PMS5003;67092;64.282;21.056;2023-03-21T10:08:01;0;0;
77896;PMS5003;67092;64.282;21.056;2023-03-21T10:10:26;0;0;
77896;PMS5003;67092;64.282;21.056;2023-03-21T10:12:51;2;1;
77896;PMS5003;67092;64.282;21.056;2023-03-21T10:15:18;1;1;
77896;PMS5003;67092;64.282;21.056;2023-03-21T10:17:43;0;0;
77896;PMS5003;67092;64.282;21.056;2023-03-21T10:20:11;0;0;
77896;PMS5003;67092;64.282;21.056;2023-03-21T10:22:33;1;0;
77896;PMS5003;67092;64.282;21.056;2023-03-21T10:24:59;0;0;
77896;PMS5003;67092;64.282;21.056;2023-03-21T10:27:25;0;0;
77896;PMS5003;67092;64.282;21.056;2023-03-21T10:29:50;0;0;
77896;PMS5003;67092;64.282;21.056;2023-03-21T10:32:16;0;0;
77896;PMS5003;67092;64.282;21.056;2023-03-21T10:34:42;0;0;
77896;PMS5003;67092;64.282;21.056;2023-03-21T10:37:07;1;1;
77896;PMS5003;67092;64.282;21.056;2023-03-21T10:39:33;0;0;
77896;PMS5003;67092;64.282;21.056;2023-03-21T10:41:58;0;0;
77896;PMS5003;67092;64.282;21.056;2023-03-21T10:44:28;0;0;
77896;PMS5003;67092;64.282;21.056;2023-03-21T10:46:50;0;0;
77896;PMS5003;67092;64.282;21.056;2023-03-21T10:49:15;0;0;
77896;PMS5003;67092;64.282;21.056;2023-03-21T10:51:41;0;0;
77896;PMS5003;67092;64.282;21.056;2023-03-21T10:54:07;0;0;
77896;PMS5003;67092;64.282;21.056;2023-03-21T10:56:34;0;0;
77896;PMS5003;67092;64.282;21.056;2023-03-21T10:58:58;1;0;
77896;PMS5003;67092;64.282;21.056;2023-03-21T11:01:25;2;1;
77896;PMS5003;67092;64.282;21.056;2023-03-21T11:03:53;0;0;
77896;PMS5003;67092;64.282;21.056;2023-03-21T11:06:15;1;0;
77896;PMS5003;67092;64.282;21.056;2023-03-21T11:08:42;2;1;
77896;PMS5003;67092;64.282;21.056;2023-03-21T11:11:07;1;1;
77896;PMS5003;67092;64.282;21.056;2023-03-21T11:13:33;1;0;
77896;PMS5003;67092;64.282;21.056;2023-03-21T11:15:59;0;0;
77896;PMS5003;67092;64.282;21.056;2023-03-21T11:18:23;0;0;
77896;PMS5003;67092;64.282;21.056;2023-03-21T11:20:49;2;1;
77896;PMS5003;67092;64.282;21.056;2023-03-21T11:23:14;0;0;
77896;PMS5003;67092;64.282;21.056;2023-03-21T11:25:40;1;1;
77896;PMS5003;67092;64.282;21.056;2023-03-21T11:28:06;0;0;
77896;PMS5003;67092;64.282;21.056;2023-03-21T11:30:31;1;0;
77896;PMS5003;67092;64.282;21.056;2023-03-21T11:32:57;0;0;
77896;PMS5003;67092;64.282;21.056;2023-03-21T11:35:23;0;0;
77896;PMS5003;67092;64.282;21.056;2023-03-21T11:37:49;0;0;
77896;PMS5003;67092;64.282;21.056;2023-03-21T11:40:18;1;0;
77896;PMS5003;67092;64.282;21.056;2023-03-21T11:42:40;1;0;
77896;PMS5003;67092;64.282;21.056;2023-03-21T11:45:10;1;0;
77896;PMS5003;67092;64.282;21.056;2023-03-21T11:47:30;1;1;
77896;PMS5003;67092;64.282;21.056;2023-03-21T11:49:56;0;0;
77896;PMS5003;67092;64.282;21.056;2023-03-21T11:52:22;0;0;
77896;PMS5003;67092;64.282;21.056;2023-03-21T11:54:51;0;0;
77896;PMS5003;67092;64.282;21.056;2023-03-21T11:57:15;1;1;
77896;PMS5003;67092;64.282;21.056;2023-03-21T11:59:40;0;0;
77896;PMS5003;67092;64.282;21.056;2023-03-21T12:04:35;0;0;
77896;PMS5003;67092;64.282;21.056;2023-03-21T12:06:57;0;0;
77896;PMS5003;67092;64.282;21.056;2023-03-21T12:09:27;0;0;
77896;PMS5003;67092;64.282;21.056;2023-03-21T12:11:51;0;0;
77896;PMS5003;67092;64.282;21.056;2023-03-21T12:14:15;0;0;
77896;PMS5003;67092;64.282;21.056;2023-03-21T12:16:41;0;0;
77896;PMS5003;67092;64.282;21.056;2023-03-21T12:19:09;0;0;
77896;PMS5003;67092;64.282;21.056;2023-03-21T12:21:32;0;0;
77896;PMS5003;67092;64.282;21.056;2023-03-21T12:23:57;0;0;
77896;PMS5003;67092;64.282;21.056;2023-03-21T12:26:21;0;0;
77896;PMS5003;67092;64.282;21.056;2023-03-21T12:28:49;1;0;
77896;PMS5003;67092;64.282;21.056;2023-03-21T12:31:12;0;0;
77896;PMS5003;67092;64.282;21.056;2023-03-21T12:33:40;0;0;
77896;PMS5003;67092;64.282;21.056;2023-03-21T12:36:08;0;0;
77896;PMS5003;67092;64.282;21.056;2023-03-21T12:38:31;0;0;
77896;PMS5003;67092;64.282;21.056;2023-03-21T12:40:58;0;0;
77896;PMS5003;67092;64.282;21.056;2023-03-21T12:43:22;0;0;
77896;PMS5003;67092;64.282;21.056;2023-03-21T12:45:46;0;0;
77896;PMS5003;67092;64.282;21.056;2023-03-21T12:48:14;0;0;
77896;PMS5003;67092;64.282;21.056;2023-03-21T12:50:36;0;0;
77896;PMS5003;67092;64.282;21.056;2023-03-21T12:53:13;0;0;
77896;PMS5003;67092;64.282;21.056;2023-03-21T12:55:28;0;0;
77896;PMS5003;67092;64.282;21.056;2023-03-21T12:57:54;0;0;
77896;PMS5003;67092;64.282;21.056;2023-03-21T13:00:20;0;0;
77896;PMS5003;67092;64.282;21.056;2023-03-21T13:02:46;0;0;
77896;PMS5003;67092;64.282;21.056;2023-03-21T13:05:14;0;0;
77896;PMS5003;67092;64.282;21.056;2023-03-21T13:07:36;0;0;
77896;PMS5003;67092;64.282;21.056;2023-03-21T13:10:03;0;0;
77896;PMS5003;67092;64.282;21.056;2023-03-21T13:12:33;0;0;
77896;PMS5003;67092;64.282;21.056;2023-03-21T13:14:58;0;0;
77896;PMS5003;67092;64.282;21.056;2023-03-21T13:17:20;0;0;
77896;PMS5003;67092;64.282;21.056;2023-03-21T13:19:45;0;0;
77896;PMS5003;67092;64.282;21.056;2023-03-21T13:22:10;0;0;
77896;PMS5003;67092;64.282;21.056;2023-03-21T13:24:37;1;0;
77896;PMS5003;67092;64.282;21.056;2023-03-21T13:27:01;0;0;
77896;PMS5003;67092;64.282;21.056;2023-03-21T13:29:28;0;0;
77896;PMS5003;67092;64.282;21.056;2023-03-21T13:31:53;0;0;
77896;PMS5003;67092;64.282;21.056;2023-03-21T13:34:19;0;0;
77896;PMS5003;67092;64.282;21.056;2023-03-21T13:36:44;0;0;
77896;PMS5003;67092;64.282;21.056;2023-03-21T13:39:15;0;0;
77896;PMS5003;67092;64.282;21.056;2023-03-21T13:41:35;0;0;
77896;PMS5003;67092;64.282;21.056;2023-03-21T13:44:07;1;0;
77896;PMS5003;67092;64.282;21.056;2023-03-21T13:46:35;0;0;
77896;PMS5003;67092;64.282;21.056;2023-03-21T13:48:55;0;0;
77896;PMS5003;67092;64.282;21.056;2023-03-21T13:51:17;0;0;
77896;PMS5003;67092;64.282;21.056;2023-03-21T13:53:43;0;0;
77896;PMS5003;67092;64.282;21.056;2023-03-21T13:58:36;0;0;
77896;PMS5003;67092;64.282;21.056;2023-03-21T14:01:04;0;0;
77896;PMS5003;67092;64.282;21.056;2023-03-21T14:03:25;0;0;
77896;PMS5003;67092;64.282;21.056;2023-03-21T14:05:51;0;0;
77896;PMS5003;67092;64.282;21.056;2023-03-21T14:08:17;0;0;
77896;PMS5003;67092;64.282;21.056;2023-03-21T14:10:43;0;0;
77896;PMS5003;67092;64.282;21.056;2023-03-21T14:13:08;0;0;
77896;PMS5003;67092;64.282;21.056;2023-03-21T14:15:36;0;0;
77896;PMS5003;67092;64.282;21.056;2023-03-21T14:17:59;0;0;
77896;PMS5003;67092;64.282;21.056;2023-03-21T14:20:26;0;0;
77896;PMS5003;67092;64.282;21.056;2023-03-21T14:22:50;0;0;
77896;PMS5003;67092;64.282;21.056;2023-03-21T14:25:17;0;0;
77896;PMS5003;67092;64.282;21.056;2023-03-21T14:27:42;0;0;
77896;PMS5003;67092;64.282;21.056;2023-03-21T14:30:09;0;0;
77896;PMS5003;67092;64.282;21.056;2023-03-21T14:32:32;0;0;
77896;PMS5003;67092;64.282;21.056;2023-03-21T14:34:58;0;0;
77896;PMS5003;67092;64.282;21.056;2023-03-21T14:37:25;0;0;
77896;PMS5003;67092;64.282;21.056;2023-03-21T14:42:15;0;0;
77896;PMS5003;67092;64.282;21.056;2023-03-21T14:44:41;0;0;
77896;PMS5003;67092;64.282;21.056;2023-03-21T14:47:07;0;0;
77896;PMS5003;67092;64.282;21.056;2023-03-21T14:49:32;0;0;
77896;PMS5003;67092;64.282;21.056;2023-03-21T14:51:58;0;0;
77896;PMS5003;67092;64.282;21.056;2023-03-21T14:54:23;0;0;
77896;PMS5003;67092;64.282;21.056;2023-03-21T14:56:50;0;0;
77896;PMS5003;67092;64.282;21.056;2023-03-21T14:59:15;0;0;
77896;PMS5003;67092;64.282;21.056;2023-03-21T15:01:40;0;0;
77896;PMS5003;67092;64.282;21.056;2023-03-21T15:04:06;0;0;
77896;PMS5003;67092;64.282;21.056;2023-03-21T15:06:31;0;0;
77896;PMS5003;67092;64.282;21.056;2023-03-21T15:08:57;0;0;
77896;PMS5003;67092;64.282;21.056;2023-03-21T15:11:27;0;0;
77896;PMS5003;67092;64.282;21.056;2023-03-21T15:13:49;0;0;
77896;PMS5003;67092;64.282;21.056;2023-03-21T15:16:14;0;0;
77896;PMS5003;67092;64.282;21.056;2023-03-21T15:18:39;0;0;
77896;PMS5003;67092;64.282;21.056;2023-03-21T15:21:06;0;0;
77896;PMS5003;67092;64.282;21.056;2023-03-21T15:23:32;0;0;
77896;PMS5003;67092;64.282;21.056;2023-03-21T15:25:56;1;0;
77896;PMS5003;67092;64.282;21.056;2023-03-21T15:28:24;0;0;
77896;PMS5003;67092;64.282;21.056;2023-03-21T15:30:48;0;0;
77896;PMS5003;67092;64.282;21.056;2023-03-21T15:33:13;0;0;
77896;PMS5003;67092;64.282;21.056;2023-03-21T15:35:39;0;0;
77896;PMS5003;67092;64.282;21.056;2023-03-21T15:38:04;0;0;
77896;PMS5003;67092;64.282;21.056;2023-03-21T15:40:31;0;0;
77896;PMS5003;67092;64.282;21.056;2023-03-21T15:43:04;0;0;
77896;PMS5003;67092;64.282;21.056;2023-03-21T15:45:21;1;0;
77896;PMS5003;67092;64.282;21.056;2023-03-21T15:47:51;0;0;
77896;PMS5003;67092;64.282;21.056;2023-03-21T15:50:17;0;0;
77896;PMS5003;67092;64.282;21.056;2023-03-21T15:52:38;0;0;
77896;PMS5003;67092;64.282;21.056;2023-03-21T15:57:30;5;5;
77896;PMS5003;67092;64.282;21.056;2023-03-21T16:00:01;8;6;
77896;PMS5003;67092;64.282;21.056;2023-03-21T16:02:21;5;4;
77896;PMS5003;67092;64.282;21.056;2023-03-21T16:04:55;4;4;
77896;PMS5003;67092;64.282;21.056;2023-03-21T16:07:14;6;5;
77896;PMS5003;67092;64.282;21.056;2023-03-21T16:09:38;5;3;
77896;PMS5003;67092;64.282;21.056;2023-03-21T16:12:07;4;4;
77896;PMS5003;67092;64.282;21.056;2023-03-21T16:14:29;4;4;
77896;PMS5003;67092;64.282;21.056;2023-03-21T16:16:55;5;5;
77896;PMS5003;67092;64.282;21.056;2023-03-21T16:19:20;5;5;
77896;PMS5003;67092;64.282;21.056;2023-03-21T16:21:46;5;4;
77896;PMS5003;67092;64.282;21.056;2023-03-21T16:24:11;6;5;
77896;PMS5003;67092;64.282;21.056;2023-03-21T16:26:38;6;6;
77896;PMS5003;67092;64.282;21.056;2023-03-21T16:29:03;7;6;
77896;PMS5003;67092;64.282;21.056;2023-03-21T16:31:29;7;7;
77896;PMS5003;67092;64.282;21.056;2023-03-21T16:33:54;6;6;
77896;PMS5003;67092;64.282;21.056;2023-03-21T16:36:21;7;7;
77896;PMS5003;67092;64.282;21.056;2023-03-21T16:38:46;7;7;